Time;durP1;ratioP1;P1;durP2;ratioP2;P2;SDS_P1;SDS_P2;PMS_P1;PMS_P2;Temp;Humidity;BMP_temperature;BMP_pressure;BME280_temperature;BME280_humidity;BME280_pressure;Samples;Min_cycle;Max_cycle;Signal;HPM_P1;HPM_P2
2023/09/27 00:02:22;;;;;;;23.88;21.38;;;;;;;;;;5070430;28;20016;-61
2023/09/27 00:04:48;;;;;;;24.87;20.47;;;;;;;;;;5070791;28;20518;-62
2023/09/27 00:07:13;;;;;;;26.65;21.27;;;;;;;;;;5069330;28;20458;-62
2023/09/27 00:09:38;;;;;;;31.63;24.20;;;;;;;;;;5070792;28;20020;-62
2023/09/27 00:12:04;;;;;;;21.55;18.48;;;;;;;;;;5069049;28;20458;-63
2023/09/27 00:14:30;;;;;;;25.20;20.77;;;;;;;;;;5070890;28;20035;-62
2023/09/27 00:16:55;;;;;;;23.45;21.00;;;;;;;;;;5068889;28;20044;-62
2023/09/27 00:19:20;;;;;;;24.33;20.77;;;;;;;;;;5070561;28;20028;-62
2023/09/27 00:21:46;;;;;;;27.60;23.27;;;;;;;;;;5069060;28;20340;-60
2023/09/27 00:24:11;;;;;;;25.48;22.75;;;;;;;;;;5070907;28;20112;-62
2023/09/27 00:26:36;;;;;;;24.17;21.65;;;;;;;;;;5068569;28;20029;-60
2023/09/27 00:29:01;;;;;;;27.73;23.80;;;;;;;;;;5070643;28;20043;-61
2023/09/27 00:31:26;;;;;;;24.63;22.13;;;;;;;;;;5069081;28;20091;-60
2023/09/27 00:33:52;;;;;;;24.10;21.48;;;;;;;;;;5069194;28;20040;-60
2023/09/27 00:36:17;;;;;;;33.33;21.83;;;;;;;;;;5067980;28;20029;-60
2023/09/27 00:38:42;;;;;;;23.27;20.83;;;;;;;;;;5070221;28;20471;-59
2023/09/27 00:41:07;;;;;;;21.83;18.70;;;;;;;;;;5068545;28;20538;-59
2023/09/27 00:43:33;;;;;;;23.27;19.77;;;;;;;;;;5070411;28;20032;-59
2023/09/27 00:46:06;;;;;;;18.17;16.27;;;;;;;;;;5068865;28;20076;-59
2023/09/27 00:48:31;;;;;;;20.13;17.98;;;;;;;;;;5070028;28;20021;-59
2023/09/27 00:50:57;;;;;;;23.13;19.35;;;;;;;;;;5068656;28;20043;-59
2023/09/27 00:53:23;;;;;;;24.23;21.67;;;;;;;;;;5070295;28;20021;-59
2023/09/27 00:55:48;;;;;;;19.40;16.83;;;;;;;;;;5068183;28;20037;-59
2023/09/27 00:58:16;;;;;;;27.38;23.20;;;;;;;;;;5070444;28;20074;-60
2023/09/27 01:00:42;;;;;;;23.65;20.88;;;;;;;;;;5068264;28;20045;-59
2023/09/27 01:03:07;;;;;;;22.95;20.13;;;;;;;;;;5069843;28;20023;-60
2023/09/27 01:05:32;;;;;;;19.17;17.17;;;;;;;;;;5068918;28;20040;-59
2023/09/27 01:07:57;;;;;;;21.03;18.37;;;;;;;;;;5070335;28;20021;-72
2023/09/27 01:10:23;;;;;;;20.77;18.67;;;;;;;;;;5068350;28;20485;-59
2023/09/27 01:12:48;;;;;;;25.27;19.70;;;;;;;;;;5070166;28;20431;-59
2023/09/27 01:15:13;;;;;;;22.97;19.97;;;;;;;;;;5068855;28;20024;-59
2023/09/27 01:17:51;;;;;;;22.75;18.73;;;;;;;;;;5069691;28;20434;-60
2023/09/27 01:20:16;;;;;;;24.50;21.80;;;;;;;;;;5068719;28;20094;-60
2023/09/27 01:22:42;;;;;;;23.57;20.83;;;;;;;;;;5069872;28;20032;-60
2023/09/27 01:25:11;;;;;;;21.42;19.13;;;;;;;;;;5067993;28;20457;-60
2023/09/27 01:27:37;;;;;;;32.65;25.27;;;;;;;;;;5069835;28;20013;-61
2023/09/27 01:30:05;;;;;;;33.17;26.70;;;;;;;;;;5068640;28;20113;-70
2023/09/27 01:32:30;;;;;;;27.10;24.25;;;;;;;;;;5068374;28;20024;-60
2023/09/27 01:34:55;;;;;;;34.83;31.13;;;;;;;;;;5068037;28;20033;-59
2023/09/27 01:37:21;;;;;;;37.43;27.80;;;;;;;;;;5070253;28;20111;-60
2023/09/27 01:39:46;;;;;;;32.63;26.48;;;;;;;;;;5069226;28;20439;-61
2023/09/27 01:42:11;;;;;;;43.40;38.03;;;;;;;;;;5068392;28;20113;-61
2023/09/27 01:44:36;;;;;;;30.13;24.47;;;;;;;;;;5070368;28;20517;-62
2023/09/27 01:47:01;;;;;;;34.63;29.88;;;;;;;;;;5071786;28;20043;-63
2023/09/27 01:49:26;;;;;;;33.00;25.90;;;;;;;;;;5071945;28;20097;-60
2023/09/27 01:51:52;;;;;;;32.60;28.52;;;;;;;;;;5071634;28;20143;-60
2023/09/27 01:54:17;;;;;;;36.78;31.13;;;;;;;;;;5072576;28;20353;-59
2023/09/27 01:56:42;;;;;;;45.72;35.47;;;;;;;;;;5071793;28;20033;-60
2023/09/27 01:59:07;;;;;;;49.17;39.73;;;;;;;;;;5073523;28;20020;-60
2023/09/27 02:01:32;;;;;;;49.83;38.30;;;;;;;;;;5071022;28;20504;-61
2023/09/27 02:03:57;;;;;;;44.53;34.95;;;;;;;;;;5072984;28;20490;-62
2023/09/27 02:06:23;;;;;;;41.05;36.75;;;;;;;;;;5071892;28;20035;-61
2023/09/27 02:08:48;;;;;;;51.47;39.85;;;;;;;;;;5072821;28;20056;-61
2023/09/27 02:11:14;;;;;;;49.30;39.10;;;;;;;;;;5071698;28;20028;-61
2023/09/27 02:13:39;;;;;;;51.92;42.90;;;;;;;;;;5072635;28;20496;-61
2023/09/27 02:16:04;;;;;;;48.53;38.55;;;;;;;;;;5071271;28;20048;-61
2023/09/27 02:18:29;;;;;;;46.53;37.47;;;;;;;;;;5073119;28;20066;-61
2023/09/27 02:20:54;;;;;;;48.33;39.58;;;;;;;;;;5070921;28;21004;-61
2023/09/27 02:23:20;;;;;;;49.17;38.67;;;;;;;;;;5072664;28;20062;-61
2023/09/27 02:25:45;;;;;;;46.35;34.85;;;;;;;;;;5071168;28;20036;-60
2023/09/27 02:28:10;;;;;;;47.80;38.27;;;;;;;;;;5072729;28;20020;-60
2023/09/27 02:30:35;;;;;;;46.93;39.40;;;;;;;;;;5070673;28;20124;-60
2023/09/27 02:33:00;;;;;;;48.80;37.92;;;;;;;;;;5072991;28;20442;-61
2023/09/27 02:35:25;;;;;;;45.67;37.40;;;;;;;;;;5071060;28;20170;-62
2023/09/27 02:37:51;;;;;;;43.17;33.90;;;;;;;;;;5072044;28;20019;-61
2023/09/27 02:40:17;;;;;;;49.17;34.67;;;;;;;;;;5071061;28;20123;-61
2023/09/27 02:42:43;;;;;;;39.47;33.75;;;;;;;;;;5072556;28;20020;-61
2023/09/27 02:45:09;;;;;;;40.63;31.95;;;;;;;;;;5070657;28;20039;-61
2023/09/27 02:47:34;;;;;;;42.88;34.75;;;;;;;;;;5072589;28;20021;-62
2023/09/27 02:49:59;;;;;;;47.58;34.75;;;;;;;;;;5069333;28;20016;-60
2023/09/27 02:52:24;;;;;;;43.17;32.37;;;;;;;;;;5072013;28;20019;-61
2023/09/27 02:54:50;;;;;;;40.35;33.53;;;;;;;;;;5071763;28;20495;-61
2023/09/27 02:57:16;;;;;;;40.00;32.60;;;;;;;;;;5070552;28;20514;-61
2023/09/27 02:59:41;;;;;;;42.63;33.30;;;;;;;;;;5072155;28;20024;-73
2023/09/27 03:02:06;;;;;;;46.77;37.43;;;;;;;;;;5070267;28;20379;-61
2023/09/27 03:04:31;;;;;;;46.63;36.47;;;;;;;;;;5072121;28;20945;-61
2023/09/27 03:06:56;;;;;;;43.73;35.97;;;;;;;;;;5070512;28;20032;-61
2023/09/27 03:09:22;;;;;;;39.00;32.53;;;;;;;;;;5071610;28;20020;-62
2023/09/27 03:11:47;;;;;;;44.03;32.58;;;;;;;;;;5070266;28;20028;-60
2023/09/27 03:14:12;;;;;;;36.63;32.42;;;;;;;;;;5071988;28;20021;-60
2023/09/27 03:16:39;;;;;;;34.50;29.67;;;;;;;;;;5069687;28;20028;-61
2023/09/27 03:19:04;;;;;;;45.85;33.58;;;;;;;;;;5071883;28;20066;-62
2023/09/27 03:21:29;;;;;;;39.42;32.45;;;;;;;;;;5070300;28;20045;-62
2023/09/27 03:23:55;;;;;;;44.80;33.10;;;;;;;;;;5071283;28;20021;-62
2023/09/27 03:26:20;;;;;;;47.28;36.97;;;;;;;;;;5069883;28;20510;-62
2023/09/27 03:28:45;;;;;;;40.10;32.85;;;;;;;;;;5071361;28;20028;-61
2023/09/27 03:31:10;;;;;;;39.78;33.10;;;;;;;;;;5069845;28;20048;-61
2023/09/27 03:33:36;;;;;;;41.70;33.03;;;;;;;;;;5071068;28;20127;-61
2023/09/27 03:36:04;;;;;;;48.55;33.65;;;;;;;;;;5070366;28;20106;-74
2023/09/27 03:38:30;;;;;;;41.72;36.17;;;;;;;;;;5071147;28;20082;-61
2023/09/27 03:40:55;;;;;;;47.40;36.13;;;;;;;;;;5069778;28;20072;-63
2023/09/27 03:43:20;;;;;;;48.72;35.22;;;;;;;;;;5071237;28;20028;-62
2023/09/27 03:45:45;;;;;;;37.13;32.58;;;;;;;;;;5069468;28;20037;-61
2023/09/27 03:48:10;;;;;;;47.07;36.43;;;;;;;;;;5071499;28;20107;-61
2023/09/27 03:50:36;;;;;;;200.17;32.00;;;;;;;;;;5069628;28;20542;-61
2023/09/27 03:53:01;;;;;;;33.85;24.95;;;;;;;;;;5070466;28;20636;-61
2023/09/27 03:55:27;;;;;;;26.53;23.73;;;;;;;;;;5069587;28;20376;-61
2023/09/27 03:57:52;;;;;;;37.33;29.95;;;;;;;;;;5071172;28;20468;-61
2023/09/27 04:00:18;;;;;;;39.65;28.45;;;;;;;;;;5067826;28;20037;-60
2023/09/27 04:02:44;;;;;;;38.72;30.63;;;;;;;;;;5070962;28;20516;-61
2023/09/27 04:05:09;;;;;;;32.83;28.40;;;;;;;;;;5069459;28;20081;-61
2023/09/27 04:07:35;;;;;;;38.90;31.02;;;;;;;;;;5069740;28;20654;-61
2023/09/27 04:10:00;;;;;;;50.20;37.08;;;;;;;;;;5069383;28;20013;-60
2023/09/27 04:12:25;;;;;;;68.60;44.60;;;;;;;;;;5070586;28;20012;-73
2023/09/27 04:14:50;;;;;;;55.88;41.63;;;;;;;;;;5069734;28;20020;-70
2023/09/27 04:17:15;;;;;;;62.42;43.70;;;;;;;;;;5069546;28;20443;-58
2023/09/27 04:19:40;;;;;;;54.43;39.60;;;;;;;;;;5070582;28;20024;-59
2023/09/27 04:22:06;;;;;;;51.72;37.25;;;;;;;;;;5068829;28;20158;-58
2023/09/27 04:24:31;;;;;;;54.60;39.20;;;;;;;;;;5070067;28;20028;-59
2023/09/27 04:26:57;;;;;;;64.45;46.30;;;;;;;;;;5068992;28;20037;-60
2023/09/27 04:29:22;;;;;;;55.38;42.03;;;;;;;;;;5070421;28;20086;-58
2023/09/27 04:31:47;;;;;;;41.00;33.83;;;;;;;;;;5068272;28;20056;-59
2023/09/27 04:34:12;;;;;;;50.35;36.67;;;;;;;;;;5050217;28;20045;-58
2023/09/27 04:36:37;;;;;;;50.80;37.90;;;;;;;;;;5048405;28;20152;-58
2023/09/27 04:39:07;;;;;;;48.10;37.30;;;;;;;;;;5062284;28;20451;-59
2023/09/27 04:41:32;;;;;;;50.97;37.70;;;;;;;;;;5069043;28;20050;-59
2023/09/27 04:43:57;;;;;;;54.92;39.03;;;;;;;;;;5068476;28;20020;-61
2023/09/27 04:46:22;;;;;;;57.30;41.42;;;;;;;;;;5068946;28;20170;-59
2023/09/27 04:48:47;;;;;;;66.88;40.58;;;;;;;;;;5070034;28;20036;-66
2023/09/27 04:51:12;;;;;;;82.97;31.98;;;;;;;;;;5068640;28;20078;-59
2023/09/27 04:53:38;;;;;;;97.85;29.80;;;;;;;;;;5070413;28;20020;-59
2023/09/27 04:56:11;;;;;;;33.70;27.63;;;;;;;;;;5068532;28;20058;-60
2023/09/27 04:58:36;;;;;;;39.55;32.95;;;;;;;;;;5069411;28;20506;-59
2023/09/27 05:01:01;;;;;;;47.15;37.60;;;;;;;;;;5068758;28;20056;-59
2023/09/27 05:03:27;;;;;;;49.30;40.40;;;;;;;;;;5070394;28;20031;-62
2023/09/27 05:05:52;;;;;;;63.90;45.57;;;;;;;;;;5067979;28;20518;-59
2023/09/27 05:08:17;;;;;;;64.85;45.20;;;;;;;;;;5068891;28;20438;-58
2023/09/27 05:10:42;;;;;;;59.17;44.20;;;;;;;;;;5068574;28;20557;-58
2023/09/27 05:13:07;;;;;;;64.67;44.30;;;;;;;;;;5070397;28;20431;-58
2023/09/27 05:15:32;;;;;;;70.57;43.07;;;;;;;;;;5068512;28;20111;-58
2023/09/27 05:17:57;;;;;;;61.22;44.67;;;;;;;;;;5070089;28;20953;-58
2023/09/27 05:20:23;;;;;;;56.43;42.50;;;;;;;;;;5072127;28;20040;-58
2023/09/27 05:22:48;;;;;;;58.53;42.03;;;;;;;;;;5073512;28;20459;-58
2023/09/27 05:25:14;;;;;;;63.40;45.38;;;;;;;;;;5072791;28;20064;-58
2023/09/27 05:27:39;;;;;;;58.40;44.58;;;;;;;;;;5074010;28;20410;-58
2023/09/27 05:30:07;;;;;;;54.10;41.03;;;;;;;;;;5072135;28;20035;-58
2023/09/27 05:32:32;;;;;;;58.00;42.70;;;;;;;;;;5072713;28;21027;-58
2023/09/27 05:34:57;;;;;;;50.88;40.50;;;;;;;;;;5071902;28;20119;-58
2023/09/27 05:37:23;;;;;;;64.72;43.42;;;;;;;;;;5072099;28;20422;-60
2023/09/27 05:39:48;;;;;;;67.57;49.42;;;;;;;;;;5073510;28;20024;-57
2023/09/27 05:42:13;;;;;;;42.25;33.30;;;;;;;;;;5072116;28;20047;-58
2023/09/27 05:44:38;;;;;;;47.40;37.60;;;;;;;;;;5073431;28;20059;-58
2023/09/27 05:47:03;;;;;;;44.08;36.50;;;;;;;;;;5070722;28;20447;-58
2023/09/27 05:49:31;;;;;;;51.35;39.45;;;;;;;;;;5073447;28;20021;-58
2023/09/27 05:51:56;;;;;;;54.65;41.75;;;;;;;;;;5071626;28;20033;-59
2023/09/27 05:54:21;;;;;;;50.92;38.03;;;;;;;;;;5072059;28;20039;-60
2023/09/27 05:56:51;;;;;;;49.55;39.15;;;;;;;;;;5070400;28;20032;-59
2023/09/27 05:59:16;;;;;;;55.30;40.35;;;;;;;;;;5071869;28;20296;-59
2023/09/27 06:01:42;;;;;;;47.27;38.57;;;;;;;;;;5069531;28;20075;-59
2023/09/27 06:04:07;;;;;;;52.58;34.83;;;;;;;;;;5072960;28;20467;-66
2023/09/27 06:06:32;;;;;;;48.00;35.40;;;;;;;;;;5070945;28;20039;-58
2023/09/27 06:08:58;;;;;;;43.70;37.25;;;;;;;;;;5070111;28;21036;-59
2023/09/27 06:11:23;;;;;;;51.25;37.90;;;;;;;;;;5062982;28;20115;-59
2023/09/27 06:13:49;;;;;;;65.83;40.53;;;;;;;;;;5051157;28;20017;-58
2023/09/27 06:16:16;;;;;;;55.10;40.42;;;;;;;;;;5061944;28;20520;-58
2023/09/27 06:18:41;;;;;;;57.90;40.38;;;;;;;;;;5072988;28;20048;-58
2023/09/27 06:21:07;;;;;;;68.72;43.55;;;;;;;;;;5071142;28;20483;-58
2023/09/27 06:23:32;;;;;;;71.65;46.30;;;;;;;;;;5073140;28;20028;-59
2023/09/27 06:25:57;;;;;;;71.82;49.95;;;;;;;;;;5071044;28;20033;-59
2023/09/27 06:28:22;;;;;;;64.93;46.17;;;;;;;;;;5072533;28;20125;-60
2023/09/27 06:30:48;;;;;;;61.75;44.55;;;;;;;;;;5070189;28;20399;-59
2023/09/27 06:33:13;;;;;;;61.33;43.57;;;;;;;;;;5072607;28;20032;-59
2023/09/27 06:35:38;;;;;;;51.55;40.30;;;;;;;;;;5070876;28;20399;-59
2023/09/27 06:38:03;;;;;;;52.90;40.20;;;;;;;;;;5072594;28;20031;-59
2023/09/27 06:40:29;;;;;;;48.07;38.10;;;;;;;;;;5071069;28;20045;-61
2023/09/27 06:42:54;;;;;;;47.15;37.55;;;;;;;;;;5072286;28;20031;-59
2023/09/27 06:45:20;;;;;;;44.30;37.50;;;;;;;;;;5061939;28;20507;-59
2023/09/27 06:47:45;;;;;;;40.87;33.67;;;;;;;;;;5071973;28;20028;-59
2023/09/27 06:50:11;;;;;;;43.85;34.65;;;;;;;;;;5070894;28;20016;-59
2023/09/27 06:52:39;;;;;;;43.65;37.15;;;;;;;;;;5072467;28;20035;-59
2023/09/27 06:55:06;;;;;;;43.25;34.70;;;;;;;;;;5070845;28;20487;-59
2023/09/27 06:57:31;;;;;;;41.92;35.35;;;;;;;;;;5072155;28;20009;-59
2023/09/27 06:59:56;;;;;;;37.70;33.47;;;;;;;;;;5071814;28;20021;-59
2023/09/27 07:02:21;;;;;;;42.07;32.97;;;;;;;;;;5070532;28;20094;-59
2023/09/27 07:04:47;;;;;;;41.60;32.23;;;;;;;;;;5071725;28;20415;-59
2023/09/27 07:07:12;;;;;;;36.50;32.55;;;;;;;;;;5070560;28;20111;-59
2023/09/27 07:09:38;;;;;;;44.00;34.50;;;;;;;;;;5071882;28;20104;-59
2023/09/27 07:12:03;;;;;;;37.70;32.53;;;;;;;;;;5070226;28;20533;-59
2023/09/27 07:14:28;;;;;;;34.33;30.75;;;;;;;;;;5071979;28;20029;-59
2023/09/27 07:16:53;;;;;;;35.83;30.07;;;;;;;;;;5070224;28;20037;-71
2023/09/27 07:19:19;;;;;;;41.33;31.45;;;;;;;;;;5070157;28;20024;-60
2023/09/27 07:21:44;;;;;;;30.23;26.85;;;;;;;;;;5070100;28;20098;-59
2023/09/27 07:24:13;;;;;;;30.93;27.47;;;;;;;;;;5070275;28;20121;-59
2023/09/27 07:26:39;;;;;;;31.75;28.33;;;;;;;;;;5069597;28;20927;-59
2023/09/27 07:29:05;;;;;;;31.77;28.35;;;;;;;;;;5072154;28;20017;-59
2023/09/27 07:31:30;;;;;;;34.97;28.52;;;;;;;;;;5070174;28;20484;-59
2023/09/27 07:33:56;;;;;;;28.90;25.90;;;;;;;;;;5070781;28;20127;-59
2023/09/27 07:36:24;;;;;;;29.40;24.60;;;;;;;;;;5070047;28;20825;-74
2023/09/27 07:38:49;;;;;;;29.25;23.85;;;;;;;;;;5070970;28;20048;-60
2023/09/27 07:41:15;;;;;;;22.83;20.13;;;;;;;;;;5069460;28;20491;-60
2023/09/27 07:43:40;;;;;;;24.00;20.55;;;;;;;;;;5071307;28;20029;-59
2023/09/27 07:46:06;;;;;;;21.57;18.03;;;;;;;;;;5069957;28;20032;-59
2023/09/27 07:48:32;;;;;;;25.02;17.38;;;;;;;;;;5071143;28;20039;-60
2023/09/27 07:50:58;;;;;;;20.45;17.20;;;;;;;;;;5069474;28;20045;-57
2023/09/27 07:53:24;;;;;;;20.00;16.67;;;;;;;;;;5071400;28;20016;-58
2023/09/27 07:55:51;;;;;;;19.48;17.48;;;;;;;;;;5060324;28;20067;-59
2023/09/27 07:58:16;;;;;;;19.25;16.15;;;;;;;;;;5069304;28;20479;-58
2023/09/27 08:00:41;;;;;;;24.08;17.45;;;;;;;;;;5061833;28;20047;-59
2023/09/27 08:03:10;;;;;;;18.27;16.50;;;;;;;;;;5051036;28;20032;-58
2023/09/27 08:05:42;;;;;;;20.15;16.08;;;;;;;;;;5054424;28;20384;-59
2023/09/27 08:08:08;;;;;;;16.45;13.88;;;;;;;;;;5071247;28;20020;-58
2023/09/27 08:10:34;;;;;;;16.00;13.75;;;;;;;;;;5064417;28;20462;-58
2023/09/27 08:12:59;;;;;;;17.90;14.10;;;;;;;;;;5048973;28;20119;-72
2023/09/27 08:15:24;;;;;;;22.17;15.25;;;;;;;;;;5052724;28;20036;-59
2023/09/27 08:17:50;;;;;;;24.15;18.50;;;;;;;;;;5070660;28;20028;-59
2023/09/27 08:20:15;;;;;;;17.30;15.52;;;;;;;;;;5066547;28;20039;-58
2023/09/27 08:22:40;;;;;;;18.77;15.20;;;;;;;;;;5050505;28;20009;-59
2023/09/27 08:25:08;;;;;;;19.27;16.70;;;;;;;;;;5050675;28;20013;-58
2023/09/27 08:27:34;;;;;;;;;;;;;;;;;;5071046;28;20423;-58
2023/09/27 08:30:00;;;;;;;20.23;15.60;;;;;;;;;;5068712;28;19919;-58
2023/09/27 08:32:25;;;;;;;19.13;16.92;;;;;;;;;;5050778;28;20036;-59
2023/09/27 08:34:50;;;;;;;18.55;16.10;;;;;;;;;;5049775;28;20474;-68
2023/09/27 08:37:16;;;;;;;21.35;18.45;;;;;;;;;;5068039;28;20032;-58
2023/09/27 08:39:41;;;;;;;21.58;15.70;;;;;;;;;;5070206;28;20024;-58
2023/09/27 08:42:07;;;;;;;16.60;14.27;;;;;;;;;;5050879;28;20059;-59
2023/09/27 08:44:32;;;;;;;17.13;14.48;;;;;;;;;;5050454;28;20424;-59
2023/09/27 08:46:58;;;;;;;17.17;15.35;;;;;;;;;;5065281;28;20029;-71
2023/09/27 08:49:23;;;;;;;15.85;14.23;;;;;;;;;;5070002;28;20066;-59
2023/09/27 08:51:50;;;;;;;16.00;12.82;;;;;;;;;;5053248;28;20108;-59
2023/09/27 08:54:17;;;;;;;20.73;14.32;;;;;;;;;;5050181;28;20031;-59
2023/09/27 08:56:47;;;;;;;14.40;12.18;;;;;;;;;;5062890;28;20035;-59
2023/09/27 08:59:12;;;;;;;17.17;13.18;;;;;;;;;;5070178;28;20031;-59
2023/09/27 09:01:38;;;;;;;16.98;11.60;;;;;;;;;;5066104;28;20048;-59
2023/09/27 09:04:04;;;;;;;21.23;14.20;;;;;;;;;;5069945;28;20157;-59
2023/09/27 09:06:29;;;;;;;18.42;13.55;;;;;;;;;;5068742;28;20124;-60
2023/09/27 09:08:54;;;;;;;17.63;13.80;;;;;;;;;;5070282;28;20756;-60
2023/09/27 09:11:22;;;;;;;11.57;10.38;;;;;;;;;;5068349;28;20443;-59
2023/09/27 09:13:53;;;;;;;23.85;15.23;;;;;;;;;;5067491;28;20020;-63
2023/09/27 09:16:23;;;;;;;13.85;12.55;;;;;;;;;;5056962;28;20029;-59
2023/09/27 09:18:48;;;;;;;13.85;12.20;;;;;;;;;;5049732;28;20033;-59
2023/09/27 09:21:18;;;;;;;24.65;13.43;;;;;;;;;;5048410;28;20045;-60
2023/09/27 09:23:48;;;;;;;14.95;11.73;;;;;;;;;;5060726;28;20788;-59
2023/09/27 09:26:24;;;;;;;15.40;11.38;;;;;;;;;;5057823;28;20116;-75
2023/09/27 09:28:55;;;;;;;13.80;11.93;;;;;;;;;;5029943;28;20022;-69
2023/09/27 09:31:21;;;;;;;11.10;10.05;;;;;;;;;;5040136;28;20037;-59
2023/09/27 09:34:00;;;;;;;19.60;12.50;;;;;;;;;;5049394;28;20049;-60
2023/09/27 09:36:28;;;;;;;12.00;10.43;;;;;;;;;;5048390;28;20099;-60
2023/09/27 09:38:54;;;;;;;;;;;;;;;;;;5050132;28;20472;-59
2023/09/27 09:41:19;;;;;;;13.82;11.18;;;;;;;;;;5047954;28;20371;-60
2023/09/27 09:43:44;;;;;;;16.80;12.55;;;;;;;;;;5049686;28;20086;-58
2023/09/27 09:46:10;;;;;;;14.77;9.67;;;;;;;;;;5048346;28;20029;-59
2023/09/27 09:48:37;;;;;;;20.27;14.40;;;;;;;;;;5049092;28;20467;-58
2023/09/27 09:51:04;;;;;;;17.83;11.90;;;;;;;;;;5048540;28;20434;-59
2023/09/27 09:53:29;;;;;;;12.77;11.43;;;;;;;;;;5050083;28;20475;-59
2023/09/27 09:55:56;;;;;;;13.32;10.55;;;;;;;;;;5047528;28;20065;-59
2023/09/27 09:58:21;;;;;;;12.70;8.45;;;;;;;;;;5049478;28;20024;-59
2023/09/27 10:00:49;;;;;;;11.05;9.05;;;;;;;;;;5047337;28;20041;-59
2023/09/27 10:03:19;;;;;;;18.52;11.32;;;;;;;;;;5055072;28;20025;-60
2023/09/27 10:05:45;;;;;;;14.57;10.23;;;;;;;;;;5067346;28;20487;-62
2023/09/27 10:08:10;;;;;;;15.95;11.98;;;;;;;;;;5073164;28;20070;-59
2023/09/27 10:10:35;;;;;;;11.63;10.50;;;;;;;;;;5070998;28;20036;-59
2023/09/27 10:13:05;;;;;;;13.40;11.65;;;;;;;;;;5072161;28;20479;-59
2023/09/27 10:15:34;;;;;;;15.88;10.15;;;;;;;;;;5071246;28;20040;-59
2023/09/27 10:18:18;;;;;;;14.98;9.50;;;;;;;;;;5072566;28;20024;-59
2023/09/27 10:21:04;;;;;;;9.10;8.20;;;;;;;;;;5071401;28;20048;-59
2023/09/27 10:23:57;;;;;;;22.83;9.27;;;;;;;;;;5072853;28;20089;-59
2023/09/27 10:26:32;;;;;;;9.95;8.90;;;;;;;;;;5071128;28;20145;-70
2023/09/27 10:29:00;;;;;;;9.80;8.63;;;;;;;;;;5071092;28;20024;-62
2023/09/27 10:31:25;;;;;;;;;;;;;;;;;;5071108;28;20036;-59
2023/09/27 10:33:50;;;;;;;12.80;8.73;;;;;;;;;;5071357;28;20020;-59
2023/09/27 10:36:17;;;;;;;15.05;9.20;;;;;;;;;;5070790;28;20082;-59
2023/09/27 10:38:42;;;;;;;14.13;11.07;;;;;;;;;;5072570;28;20025;-59
2023/09/27 10:41:07;;;;;;;11.90;9.27;;;;;;;;;;5069015;28;20091;-59
2023/09/27 10:43:32;;;;;;;9.80;7.70;;;;;;;;;;5072902;28;20438;-59
2023/09/27 10:45:58;;;;;;;8.77;7.32;;;;;;;;;;5069626;28;20064;-59
2023/09/27 10:48:24;;;;;;;8.95;8.05;;;;;;;;;;5072032;28;20021;-59
2023/09/27 10:50:52;;;;;;;8.23;7.25;;;;;;;;;;5070925;28;20120;-59
2023/09/27 10:53:17;;;;;;;11.77;8.65;;;;;;;;;;5072591;28;20025;-59
2023/09/27 10:55:42;;;;;;;8.43;7.27;;;;;;;;;;5070108;28;20454;-59
2023/09/27 10:58:11;;;;;;;12.98;7.55;;;;;;;;;;5072392;28;20545;-59
2023/09/27 11:00:48;;;;;;;9.82;7.32;;;;;;;;;;5070689;28;20048;-60
2023/09/27 11:03:16;;;;;;;11.95;7.43;;;;;;;;;;5071808;28;20020;-61
2023/09/27 11:05:42;;;;;;;8.40;7.53;;;;;;;;;;5070525;28;20069;-60
2023/09/27 11:08:07;;;;;;;7.47;5.77;;;;;;;;;;5072140;28;20546;-63
2023/09/27 11:10:32;;;;;;;11.20;5.87;;;;;;;;;;5070225;28;20036;-58
2023/09/27 11:13:09;;;;;;;9.88;6.25;;;;;;;;;;5071807;28;20107;-59
2023/09/27 11:15:35;;;;;;;7.70;5.40;;;;;;;;;;5070599;28;20098;-59
2023/09/27 11:18:00;;;;;;;7.97;5.57;;;;;;;;;;5071217;28;20036;-59
2023/09/27 11:20:25;;;;;;;8.02;6.43;;;;;;;;;;5070449;28;20115;-59
2023/09/27 11:22:58;;;;;;;8.07;6.05;;;;;;;;;;5071383;28;20379;-60
2023/09/27 11:25:30;;;;;;;8.93;5.47;;;;;;;;;;5069996;28;20056;-59
2023/09/27 11:27:56;;;;;;;8.77;6.70;;;;;;;;;;5071324;28;20044;-60
2023/09/27 11:30:32;;;;;;;11.60;7.15;;;;;;;;;;5070392;28;20043;-59
2023/09/27 11:32:58;;;;;;;13.45;8.25;;;;;;;;;;5071357;28;20480;-59
2023/09/27 11:35:24;;;;;;;13.20;10.55;;;;;;;;;;5069931;28;20049;-59
2023/09/27 11:37:49;;;;;;;9.02;7.20;;;;;;;;;;5071007;28;20027;-59
2023/09/27 11:40:14;;;;;;;11.83;8.80;;;;;;;;;;5069793;28;20372;-60
2023/09/27 11:42:40;;;;;;;11.25;7.68;;;;;;;;;;5071097;28;20949;-59
2023/09/27 11:45:08;;;;;;;14.57;8.33;;;;;;;;;;5066853;28;20059;-59
2023/09/27 11:47:33;;;;;;;;;;;;;;;;;;5071245;28;20017;-59
2023/09/27 11:49:58;;;;;;;14.80;9.25;;;;;;;;;;5069456;28;20109;-59
2023/09/27 11:52:23;;;;;;;10.65;7.80;;;;;;;;;;5069722;28;20013;-61
2023/09/27 11:54:48;;;;;;;13.30;9.30;;;;;;;;;;5070457;28;20040;-59
2023/09/27 11:57:13;;;;;;;12.30;8.40;;;;;;;;;;5069226;28;20450;-59
2023/09/27 11:59:39;;;;;;;13.57;8.57;;;;;;;;;;5070784;28;20020;-59
2023/09/27 12:02:04;;;;;;;10.27;9.15;;;;;;;;;;5068203;28;20479;-59
2023/09/27 12:04:29;;;;;;;10.40;8.52;;;;;;;;;;5071005;28;20048;-59
2023/09/27 12:06:54;;;;;;;17.45;9.60;;;;;;;;;;5069187;28;20094;-59
2023/09/27 12:09:20;;;;;;;15.80;9.23;;;;;;;;;;5070624;28;20017;-59
2023/09/27 12:11:45;;;;;;;10.80;7.53;;;;;;;;;;5069098;28;20029;-59
2023/09/27 12:14:10;;;;;;;13.07;8.75;;;;;;;;;;5071093;28;20024;-59
2023/09/27 12:16:35;;;;;;;13.70;9.20;;;;;;;;;;5068579;28;20392;-60
2023/09/27 12:19:01;;;;;;;11.30;8.57;;;;;;;;;;5070701;28;20016;-60
2023/09/27 12:21:26;;;;;;;12.45;7.70;;;;;;;;;;5069197;28;20392;-63
2023/09/27 12:23:51;;;;;;;13.73;9.00;;;;;;;;;;5070167;28;20024;-59
2023/09/27 12:26:17;;;;;;;11.53;8.77;;;;;;;;;;5069241;28;20123;-60
2023/09/27 12:28:42;;;;;;;8.90;7.97;;;;;;;;;;5069888;28;20077;-64
2023/09/27 12:31:07;;;;;;;17.48;8.90;;;;;;;;;;5069194;28;20036;-59
2023/09/27 12:33:33;;;;;;;11.20;8.60;;;;;;;;;;5070279;28;20194;-60
2023/09/27 12:35:58;;;;;;;13.45;9.80;;;;;;;;;;5068915;28;20055;-60
2023/09/27 12:38:24;;;;;;;12.63;9.97;;;;;;;;;;5070259;28;20020;-60
2023/09/27 12:40:50;;;;;;;12.65;8.63;;;;;;;;;;5068786;28;20411;-59
2023/09/27 12:43:15;;;;;;;15.32;7.97;;;;;;;;;;5070605;28;20025;-60
2023/09/27 12:45:40;;;;;;;9.57;8.60;;;;;;;;;;5068421;28;20501;-59
2023/09/27 12:48:05;;;;;;;9.73;8.10;;;;;;;;;;5070581;28;20036;-59
2023/09/27 12:50:30;;;;;;;17.48;9.20;;;;;;;;;;5068879;28;20119;-60
2023/09/27 12:52:56;;;;;;;12.80;9.00;;;;;;;;;;5070056;28;20412;-61
2023/09/27 12:55:21;;;;;;;13.55;9.10;;;;;;;;;;5068873;28;20036;-60
2023/09/27 12:57:47;;;;;;;14.98;8.88;;;;;;;;;;5070239;28;20095;-60
2023/09/27 13:00:13;;;;;;;12.43;9.70;;;;;;;;;;5068156;28;20456;-59
2023/09/27 13:02:38;;;;;;;10.60;8.52;;;;;;;;;;5069748;28;20021;-60
2023/09/27 13:05:03;;;;;;;11.27;8.60;;;;;;;;;;5068788;28;20377;-67
2023/09/27 13:07:29;;;;;;;11.30;9.30;;;;;;;;;;5070054;28;20181;-60
2023/09/27 13:09:54;;;;;;;11.18;8.32;;;;;;;;;;5069874;28;20353;-60
2023/09/27 13:12:19;;;;;;;20.07;9.63;;;;;;;;;;5068733;28;20105;-60
2023/09/27 13:14:44;;;;;;;12.93;8.57;;;;;;;;;;5068343;28;20088;-60
2023/09/27 13:17:10;;;;;;;14.68;8.35;;;;;;;;;;5068586;28;20040;-60
2023/09/27 13:19:35;;;;;;;11.37;8.20;;;;;;;;;;5068484;28;20017;-60
2023/09/27 13:22:00;;;;;;;11.57;9.40;;;;;;;;;;5065318;28;20060;-60
2023/09/27 13:24:25;;;;;;;17.13;9.43;;;;;;;;;;5070029;28;20135;-60
2023/09/27 13:26:50;;;;;;;16.73;9.07;;;;;;;;;;5068103;28;20036;-69
2023/09/27 13:29:15;;;;;;;10.98;8.95;;;;;;;;;;5069652;28;20023;-59
2023/09/27 13:31:40;;;;;;;15.27;9.15;;;;;;;;;;5066826;28;20449;-59
2023/09/27 13:34:06;;;;;;;14.70;8.60;;;;;;;;;;5069848;28;20045;-60
2023/09/27 13:36:35;;;;;;;11.40;8.40;;;;;;;;;;5067665;28;20037;-60
2023/09/27 13:39:00;;;;;;;12.13;8.73;;;;;;;;;;5069856;28;20059;-59
2023/09/27 13:41:25;;;;;;;13.55;8.57;;;;;;;;;;5071920;28;20068;-68
2023/09/27 13:43:50;;;;;;;10.75;7.60;;;;;;;;;;5073321;28;20482;-60
2023/09/27 13:46:16;;;;;;;16.30;10.50;;;;;;;;;;5072226;28;20396;-59
2023/09/27 13:48:41;;;;;;;10.40;7.65;;;;;;;;;;5073207;28;20414;-60
2023/09/27 13:51:06;;;;;;;8.65;6.72;;;;;;;;;;5072102;28;20482;-60
2023/09/27 13:53:31;;;;;;;13.02;7.80;;;;;;;;;;5073209;28;20025;-59
2023/09/27 13:55:56;;;;;;;11.65;7.93;;;;;;;;;;5071919;28;20086;-59
2023/09/27 13:58:22;;;;;;;15.98;7.25;;;;;;;;;;5073579;28;20505;-60
2023/09/27 14:00:47;;;;;;;15.75;7.03;;;;;;;;;;5071461;28;20043;-59
2023/09/27 14:03:13;;;;;;;14.17;8.50;;;;;;;;;;5073599;28;20104;-59
2023/09/27 14:05:38;;;;;;;9.45;8.48;;;;;;;;;;5071627;28;20039;-60
2023/09/27 14:08:03;;;;;;;8.85;7.18;;;;;;;;;;5072828;28;20394;-59
2023/09/27 14:10:28;;;;;;;15.53;9.20;;;;;;;;;;5072005;28;20045;-60
2023/09/27 14:12:54;;;;;;;9.15;6.65;;;;;;;;;;5069523;28;20028;-60
2023/09/27 14:15:20;;;;;;;12.40;7.70;;;;;;;;;;5070740;28;20048;-60
2023/09/27 14:17:46;;;;;;;12.23;6.72;;;;;;;;;;5073037;28;20012;-68